createdAt,value
2023-04-18T00:02:04.717Z,29.40
2023-04-18T00:04:32.617Z,29.50
2023-04-18T00:07:01.722Z,29.50
2023-04-18T00:12:10.066Z,29.70
2023-04-18T00:14:37.648Z,29.70
2023-04-18T00:17:05.510Z,29.80
2023-04-18T00:19:33.403Z,29.90
2023-04-18T00:22:01.055Z,29.90
2023-04-18T00:24:31.863Z,29.90
2023-04-18T00:26:59.583Z,30.00
2023-04-18T00:29:27.151Z,30.00
2023-04-18T00:31:54.708Z,30.00
2023-04-18T00:34:22.564Z,30.10
2023-04-18T00:36:50.211Z,30.20
2023-04-18T00:39:17.794Z,30.20
2023-04-18T00:41:49.621Z,30.30
2023-04-18T00:44:37.150Z,30.40
2023-04-18T00:47:05.200Z,30.50
2023-04-18T00:49:32.735Z,30.60
2023-04-18T00:52:00.319Z,30.60
2023-04-18T00:54:29.320Z,30.60
2023-04-18T00:56:56.883Z,30.80
2023-04-18T00:59:25.076Z,30.80
2023-04-18T01:01:53.151Z,30.90
2023-04-18T01:04:21.102Z,31.00
2023-04-18T01:06:48.694Z,31.00
2023-04-18T01:09:16.403Z,31.00
2023-04-18T01:11:44.049Z,31.00
2023-04-18T01:14:21.393Z,31.10
2023-04-18T01:16:49.625Z,31.20
2023-04-18T01:19:17.185Z,31.30
2023-04-18T01:21:44.713Z,31.30
2023-04-18T01:24:13.018Z,31.40
2023-04-18T01:26:41.506Z,31.40
2023-04-18T01:29:09.120Z,31.50
2023-04-18T01:31:37.218Z,31.60
2023-04-18T01:34:04.890Z,31.60
2023-04-18T01:36:32.450Z,31.70
2023-04-18T01:39:00.294Z,31.70
2023-04-18T01:41:28.151Z,31.80
2023-04-18T01:43:55.749Z,31.90
2023-04-18T01:46:27.176Z,31.90
2023-04-18T01:48:54.794Z,31.90
2023-04-18T01:51:22.351Z,32.00
2023-04-18T01:53:50.171Z,32.10
2023-04-18T01:56:17.746Z,32.10
2023-04-18T01:58:45.384Z,32.20
2023-04-18T02:01:13.084Z,32.20
2023-04-18T02:03:41.058Z,32.40
2023-04-18T02:06:08.782Z,32.40
2023-04-18T02:08:36.756Z,32.40
2023-04-18T02:11:04.708Z,32.50
2023-04-18T02:13:32.399Z,32.60
2023-04-18T02:16:00.222Z,32.70
2023-04-18T02:21:10.718Z,32.90
2023-04-18T02:23:38.342Z,33.00
2023-04-18T02:26:06.059Z,33.10
2023-04-18T02:28:33.963Z,33.10
2023-04-18T02:31:02.633Z,33.10
2023-04-18T02:33:31.563Z,33.10
2023-04-18T02:35:59.284Z,33.10
2023-04-18T02:38:26.868Z,33.20
2023-04-18T02:40:55.677Z,33.30
2023-04-18T02:43:23.664Z,33.40
2023-04-18T02:45:51.346Z,33.40
2023-04-18T02:48:18.923Z,33.50
2023-04-18T02:50:49.675Z,33.60
2023-04-18T02:53:17.781Z,33.70
2023-04-18T02:55:45.341Z,33.70
2023-04-18T02:58:14.076Z,33.90
2023-04-18T03:00:43.029Z,33.80
2023-04-18T03:03:11.325Z,33.90
2023-04-18T03:05:39.738Z,34.00
2023-04-18T03:08:07.716Z,34.10
2023-04-18T03:10:35.362Z,34.20
2023-04-18T03:13:03.428Z,34.30
2023-04-18T03:15:31.439Z,34.50
2023-04-18T03:17:59.136Z,34.60
2023-04-18T03:20:27.256Z,34.50
2023-04-18T03:22:54.875Z,34.70
2023-04-18T03:25:22.764Z,34.70
2023-04-18T03:27:50.621Z,34.70
2023-04-18T03:30:18.127Z,34.90
2023-04-18T03:32:45.818Z,35.00
2023-04-18T03:35:13.563Z,35.10
2023-04-18T03:37:41.119Z,35.10
2023-04-18T03:40:08.821Z,35.10
2023-04-18T03:42:36.727Z,35.20
2023-04-18T03:45:04.273Z,35.20
2023-04-18T03:47:32.393Z,35.30
2023-04-18T03:50:01.269Z,35.30
2023-04-18T03:52:29.835Z,35.40
2023-04-18T03:54:57.643Z,35.50
2023-04-18T03:57:25.650Z,35.60
2023-04-18T03:59:53.271Z,35.60
2023-04-18T04:02:20.975Z,35.80
2023-04-18T04:04:49.865Z,35.80
2023-04-18T04:07:17.465Z,35.90
2023-04-18T04:09:44.998Z,35.90
2023-04-18T04:12:13.727Z,36.10
2023-04-18T04:14:41.377Z,36.20
2023-04-18T04:17:08.997Z,36.30
2023-04-18T04:19:37.112Z,36.40
2023-04-18T04:22:04.646Z,36.40
2023-04-18T04:24:32.308Z,36.60
2023-04-18T04:27:04.236Z,36.60
2023-04-18T04:29:31.946Z,36.80
2023-04-18T04:31:59.824Z,36.70
2023-04-18T04:34:27.667Z,36.70
2023-04-18T04:36:55.246Z,36.90
2023-04-18T04:39:22.821Z,36.90
2023-04-18T04:41:52.554Z,36.90
2023-04-18T04:44:20.189Z,36.90
2023-04-18T04:46:48.013Z,36.90
2023-04-18T04:49:16.770Z,37.00
2023-04-18T04:51:44.389Z,37.00
2023-04-18T04:54:15.437Z,37.10
2023-04-18T04:56:44.422Z,37.20
2023-04-18T04:59:12.148Z,37.30
2023-04-18T05:01:40.005Z,37.30
2023-04-18T05:04:08.631Z,37.40
2023-04-18T05:06:37.111Z,37.50
2023-04-18T05:09:06.169Z,37.30
2023-04-18T05:11:36.110Z,37.30
2023-04-18T05:14:03.765Z,37.50
2023-04-18T05:16:31.369Z,37.50
2023-04-18T05:18:59.885Z,37.70
2023-04-18T05:21:27.460Z,37.70
2023-04-18T05:23:55.067Z,37.70
2023-04-18T05:26:23.040Z,37.70
2023-04-18T05:28:50.618Z,37.50
2023-04-18T05:31:18.525Z,37.60
2023-04-18T05:33:46.395Z,37.80
2023-04-18T05:36:13.952Z,37.80
2023-04-18T05:38:41.697Z,37.90
2023-04-18T05:41:09.590Z,38.10
2023-04-18T05:43:37.133Z,38.10
2023-04-18T05:46:04.986Z,38.20
2023-04-18T05:48:32.780Z,38.20
2023-04-18T05:51:00.386Z,38.20
2023-04-18T05:53:28.144Z,38.30
2023-04-18T05:55:56.035Z,38.30
2023-04-18T05:58:23.641Z,38.30
2023-04-18T06:00:51.433Z,38.40
2023-04-18T06:03:20.219Z,38.40
2023-04-18T06:05:48.076Z,38.50
2023-04-18T06:08:16.068Z,38.60
2023-04-18T06:10:44.854Z,38.50
2023-04-18T06:13:12.470Z,38.50
2023-04-18T06:15:40.053Z,38.60
2023-04-18T06:18:08.647Z,38.60
2023-04-18T06:20:36.263Z,38.50
2023-04-18T06:23:04.097Z,38.60
2023-04-18T06:25:32.717Z,38.70
2023-04-18T06:28:00.269Z,38.80
2023-04-18T06:30:28.193Z,38.70
2023-04-18T06:32:56.560Z,38.90
2023-04-18T06:35:26.558Z,38.90
2023-04-18T06:37:54.584Z,38.80
2023-04-18T06:40:23.375Z,38.90
2023-04-18T06:42:50.896Z,38.70
2023-04-18T06:45:18.727Z,38.70
2023-04-18T06:47:47.256Z,38.80
2023-04-18T06:50:14.820Z,38.90
2023-04-18T06:52:42.521Z,38.90
2023-04-18T06:55:10.738Z,39.00
2023-04-18T06:57:38.359Z,39.00
2023-04-18T07:00:06.141Z,39.00
2023-04-18T07:02:35.210Z,39.10
2023-04-18T07:05:02.815Z,39.20
2023-04-18T07:07:30.464Z,39.30
2023-04-18T07:09:59.043Z,39.30
2023-04-18T07:12:26.597Z,39.30
2023-04-18T07:14:54.282Z,39.40
2023-04-18T07:17:22.292Z,39.40
2023-04-18T07:19:49.921Z,39.40
2023-04-18T07:22:17.846Z,39.30
2023-04-18T07:24:46.183Z,39.40
2023-04-18T07:27:13.770Z,39.40
2023-04-18T07:29:41.784Z,39.40
2023-04-18T07:32:09.701Z,39.50
2023-04-18T07:34:37.366Z,39.50
2023-04-18T07:37:05.282Z,39.50
2023-04-18T07:39:33.189Z,39.50
2023-04-18T07:42:00.748Z,39.40
2023-04-18T07:44:28.568Z,39.30
2023-04-18T07:46:56.449Z,39.30
2023-04-18T07:49:24.063Z,39.40
2023-04-18T07:51:51.818Z,39.30
2023-04-18T07:54:19.841Z,39.20
2023-04-18T07:56:47.450Z,39.30
2023-04-18T07:59:15.543Z,39.30
2023-04-18T08:01:43.685Z,39.30
2023-04-18T08:04:11.426Z,39.30
2023-04-18T08:06:39.246Z,39.30
2023-04-18T08:09:07.233Z,39.40
2023-04-18T08:11:34.781Z,39.40
2023-04-18T08:14:02.724Z,39.30
2023-04-18T08:16:30.703Z,39.30
2023-04-18T08:18:58.283Z,39.30
2023-04-18T08:21:26.071Z,39.20
2023-04-18T08:23:54.639Z,39.20
2023-04-18T08:26:22.256Z,39.10
2023-04-18T08:28:50.309Z,39.20
2023-04-18T08:31:19.138Z,39.10
2023-04-18T08:33:46.900Z,39.00
2023-04-18T08:36:14.812Z,39.00
2023-04-18T08:38:43.498Z,39.00
2023-04-18T08:41:11.068Z,39.00
2023-04-18T08:43:38.898Z,39.00
2023-04-18T08:46:06.984Z,39.00
2023-04-18T08:48:34.644Z,38.90
2023-04-18T08:51:02.700Z,38.90
2023-04-18T08:53:31.164Z,39.00
2023-04-18T08:55:58.742Z,38.90
2023-04-18T08:58:26.392Z,38.90
2023-04-18T09:00:54.296Z,38.80
2023-04-18T09:03:22.014Z,38.70
2023-04-18T09:05:49.659Z,38.70
2023-04-18T09:08:18.044Z,38.70
2023-04-18T09:10:46.826Z,38.70
2023-04-18T09:13:14.725Z,38.70
2023-04-18T09:15:43.227Z,38.70
2023-04-18T09:18:10.886Z,38.60
2023-04-18T09:20:38.624Z,38.70
2023-04-18T09:23:07.267Z,38.70
2023-04-18T09:25:34.952Z,38.60
2023-04-18T09:28:02.607Z,38.50
2023-04-18T09:30:30.458Z,38.50
2023-04-18T09:32:58.110Z,38.50
2023-04-18T09:35:25.927Z,38.40
2023-04-18T09:37:53.899Z,38.30
2023-04-18T09:40:21.520Z,38.30
2023-04-18T09:42:49.584Z,38.30
2023-04-18T09:45:17.992Z,38.30
2023-04-18T09:47:45.662Z,38.20
2023-04-18T09:50:13.545Z,38.20
2023-04-18T09:52:41.539Z,38.20
2023-04-18T09:55:09.115Z,38.20
2023-04-18T09:57:36.973Z,38.20
2023-04-18T10:00:05.626Z,38.10
2023-04-18T10:02:33.988Z,38.00
2023-04-18T10:05:01.983Z,38.00
2023-04-18T10:07:30.519Z,37.90
2023-04-18T10:09:58.153Z,37.80
2023-04-18T10:12:25.942Z,37.90
2023-04-18T10:14:53.829Z,37.70
2023-04-18T10:17:21.420Z,37.70
2023-04-18T10:19:49.218Z,37.60
2023-04-18T10:22:21.580Z,37.60
2023-04-18T10:24:49.211Z,37.50
2023-04-18T10:27:16.906Z,37.40
2023-04-18T10:29:44.785Z,37.30
2023-04-18T10:32:12.422Z,37.30
2023-04-18T10:34:40.162Z,37.20
2023-04-18T10:37:08.059Z,37.20
2023-04-18T10:39:35.980Z,37.10
2023-04-18T10:42:03.804Z,36.90
2023-04-18T10:44:31.801Z,36.90
2023-04-18T10:46:59.409Z,36.80
2023-04-18T10:49:28.373Z,36.70
2023-04-18T10:51:58.344Z,36.60
2023-04-18T10:54:26.266Z,36.50
2023-04-18T10:56:53.843Z,36.30
2023-04-18T10:59:22.449Z,36.40
2023-04-18T11:01:50.056Z,36.30
2023-04-18T11:04:18.082Z,36.30
2023-04-18T11:06:48.529Z,36.20
2023-04-18T11:09:16.108Z,36.10
2023-04-18T11:11:43.812Z,36.10
2023-04-18T11:14:12.218Z,36.00
2023-04-18T11:16:41.497Z,35.90
2023-04-18T11:19:09.106Z,35.90
2023-04-18T11:21:38.133Z,35.80
2023-04-18T11:24:05.926Z,35.80
2023-04-18T11:26:33.902Z,35.70
2023-04-18T11:29:02.427Z,35.60
2023-04-18T11:31:30.323Z,35.50
2023-04-18T11:33:58.054Z,35.40
2023-04-18T11:36:26.129Z,35.40
2023-04-18T11:38:53.967Z,35.40
2023-04-18T11:41:21.578Z,35.30
2023-04-18T11:43:52.085Z,35.30
2023-04-18T11:46:19.920Z,35.30
2023-04-18T11:48:47.576Z,35.20
2023-04-18T11:51:15.517Z,35.20
2023-04-18T11:53:43.284Z,35.10
2023-04-18T11:56:10.857Z,35.10
2023-04-18T11:58:39.669Z,35.00
2023-04-18T12:01:07.586Z,35.00
2023-04-18T12:03:35.277Z,34.90
2023-04-18T12:06:04.238Z,34.80
2023-04-18T12:08:32.103Z,34.70
2023-04-18T12:10:59.656Z,34.70
2023-04-18T12:13:27.536Z,34.60
2023-04-18T12:15:55.370Z,34.70
2023-04-18T12:18:23.095Z,34.60
2023-04-18T12:20:51.149Z,34.50
2023-04-18T12:23:18.795Z,34.60
2023-04-18T12:25:46.336Z,34.50
2023-04-18T12:28:15.159Z,34.40
2023-04-18T12:30:43.002Z,34.40
2023-04-18T12:33:10.536Z,34.40
2023-04-18T12:35:38.515Z,34.30
2023-04-18T12:38:06.310Z,34.30
2023-04-18T12:40:33.845Z,34.30
2023-04-18T12:43:03.575Z,34.30
2023-04-18T12:45:31.820Z,34.20
2023-04-18T12:47:59.512Z,34.10
2023-04-18T12:50:27.476Z,34.10
2023-04-18T12:52:55.098Z,34.10
2023-04-18T12:55:22.740Z,34.00
2023-04-18T12:57:50.660Z,33.90
2023-04-18T13:00:18.413Z,33.90
2023-04-18T13:02:46.227Z,33.90
2023-04-18T13:05:14.210Z,33.90
2023-04-18T13:07:41.901Z,33.80
2023-04-18T13:10:09.489Z,33.80
2023-04-18T13:12:37.462Z,33.90
2023-04-18T13:15:05.273Z,33.80
2023-04-18T13:17:32.924Z,33.80
2023-04-18T13:20:00.839Z,33.80
2023-04-18T13:22:29.829Z,33.80
2023-04-18T13:24:57.391Z,33.70
2023-04-18T13:27:25.908Z,33.80
2023-04-18T13:29:53.754Z,33.80
2023-04-18T13:32:21.303Z,33.70
2023-04-18T13:34:49.408Z,33.70
2023-04-18T13:37:17.082Z,33.60
2023-04-18T13:39:44.938Z,33.60
2023-04-18T13:42:15.929Z,33.60
2023-04-18T13:44:44.121Z,33.60
2023-04-18T13:47:11.722Z,33.50
2023-04-18T13:49:40.811Z,33.50
2023-04-18T13:52:09.615Z,33.50
2023-04-18T13:54:37.211Z,33.60
2023-04-18T13:57:05.116Z,33.50
2023-04-18T13:59:32.940Z,33.50
2023-04-18T14:02:00.753Z,33.50
2023-04-18T14:04:29.632Z,33.50
2023-04-18T14:06:57.397Z,33.50
2023-04-18T14:09:24.959Z,33.50
2023-04-18T14:11:53.607Z,33.40
2023-04-18T14:14:21.727Z,33.50
2023-04-18T14:16:51.333Z,33.40
2023-04-18T14:19:19.236Z,33.40
2023-04-18T14:21:46.810Z,33.40
2023-04-18T14:24:14.456Z,33.40
2023-04-18T14:26:44.054Z,33.30
2023-04-18T14:29:11.808Z,33.40
2023-04-18T14:31:39.473Z,33.40
2023-04-18T14:34:07.449Z,33.40
2023-04-18T14:36:35.056Z,33.30
2023-04-18T14:39:02.653Z,33.30
2023-04-18T14:41:30.558Z,33.30
2023-04-18T14:43:58.195Z,33.30
2023-04-18T14:46:25.782Z,33.30
2023-04-18T14:48:54.983Z,33.30
2023-04-18T14:51:22.755Z,33.30
2023-04-18T14:53:50.647Z,33.30
2023-04-18T14:56:19.631Z,33.30
2023-04-18T14:58:47.289Z,33.30
2023-04-18T15:01:14.866Z,33.20
2023-04-18T15:03:43.085Z,33.20
2023-04-18T15:06:10.971Z,33.20
2023-04-18T15:08:38.672Z,33.20
2023-04-18T15:11:07.375Z,33.20
2023-04-18T15:13:35.327Z,33.10
2023-04-18T15:16:03.060Z,33.20
2023-04-18T15:18:31.168Z,33.20
2023-04-18T15:20:58.843Z,33.10
2023-04-18T15:23:26.572Z,33.10
2023-04-18T15:25:54.465Z,33.00
2023-04-18T15:28:22.149Z,33.00
2023-04-18T15:30:49.691Z,33.00
2023-04-18T15:33:17.597Z,33.00
2023-04-18T15:35:45.213Z,33.00
2023-04-18T15:38:12.766Z,33.00
2023-04-18T15:40:40.716Z,33.00
2023-04-18T15:43:08.471Z,33.00
2023-04-18T15:45:36.113Z,33.00
2023-04-18T15:48:04.627Z,33.00
2023-04-18T15:50:33.621Z,32.90
2023-04-18T15:53:01.329Z,32.90
2023-04-18T15:55:29.997Z,33.00
2023-04-18T15:57:57.690Z,32.90
2023-04-18T16:00:25.274Z,32.90
2023-04-18T16:02:54.002Z,32.90
2023-04-18T16:05:22.005Z,32.90
2023-04-18T16:07:49.591Z,32.80
2023-04-18T16:10:17.670Z,32.80
2023-04-18T16:12:45.300Z,32.80
2023-04-18T16:15:12.895Z,32.80
2023-04-18T16:17:41.441Z,32.70
2023-04-18T16:20:09.238Z,32.70
2023-04-18T16:22:37.007Z,32.70
2023-04-18T16:25:05.481Z,32.70
2023-04-18T16:27:33.450Z,32.80
2023-04-18T16:30:01.194Z,32.70
2023-04-18T16:32:29.128Z,32.60
2023-04-18T16:34:56.861Z,32.70
2023-04-18T16:37:24.484Z,32.60
2023-04-18T16:39:52.386Z,32.60
2023-04-18T16:42:20.495Z,32.60
2023-04-18T16:44:48.083Z,32.60
2023-04-18T16:47:16.567Z,32.60
2023-04-18T16:49:44.215Z,32.60
2023-04-18T16:52:11.818Z,32.60
2023-04-18T16:54:39.699Z,32.60
2023-04-18T16:57:07.369Z,32.50
2023-04-18T16:59:34.956Z,32.40
2023-04-18T17:02:03.022Z,32.50
2023-04-18T17:04:31.576Z,32.40
2023-04-18T17:06:59.178Z,32.40
2023-04-18T17:09:27.221Z,32.40
2023-04-18T17:11:55.027Z,32.30
2023-04-18T17:14:22.565Z,32.30
2023-04-18T17:16:53.315Z,32.40
2023-04-18T17:19:21.507Z,32.30
2023-04-18T17:21:49.067Z,32.30
2023-04-18T17:24:17.408Z,32.30
2023-04-18T17:26:45.024Z,32.30
2023-04-18T17:29:12.872Z,32.20
2023-04-18T17:31:40.943Z,32.30
2023-04-18T17:34:08.725Z,32.20
2023-04-18T17:36:36.303Z,32.30
2023-04-18T17:39:04.802Z,32.30
2023-04-18T17:41:34.713Z,32.30
2023-04-18T17:44:02.261Z,32.30
2023-04-18T17:46:29.907Z,32.30
2023-04-18T17:48:57.679Z,32.40
2023-04-18T17:51:25.243Z,32.30
2023-04-18T17:53:52.986Z,32.20
2023-04-18T17:56:20.596Z,32.20
2023-04-18T17:58:48.156Z,32.20
2023-04-18T18:01:15.954Z,32.10
2023-04-18T18:03:49.258Z,32.10
2023-04-18T18:06:19.705Z,32.10
2023-04-18T18:08:48.337Z,32.10
2023-04-18T18:11:18.519Z,32.10
2023-04-18T18:13:48.107Z,32.10
2023-04-18T18:16:16.362Z,32.10
2023-04-18T18:18:45.006Z,32.10
2023-04-18T18:21:18.367Z,32.10
2023-04-18T18:23:47.021Z,32.10
2023-04-18T18:26:14.800Z,32.10
2023-04-18T18:28:42.781Z,32.00
2023-04-18T18:31:10.448Z,32.00
2023-04-18T18:33:38.230Z,31.90
2023-04-18T18:36:06.025Z,31.90
2023-04-18T18:38:33.685Z,32.00
2023-04-18T18:41:03.524Z,31.90
2023-04-18T18:43:32.309Z,31.90
2023-04-18T18:46:00.484Z,31.90
2023-04-18T18:48:28.089Z,31.90
2023-04-18T18:50:55.748Z,31.80
2023-04-18T18:53:23.449Z,31.70
2023-04-18T18:55:50.986Z,31.80
2023-04-18T18:58:18.743Z,31.80
2023-04-18T19:00:46.326Z,31.80
2023-04-18T19:03:13.985Z,31.70
2023-04-18T19:05:41.657Z,31.70
2023-04-18T19:08:09.377Z,31.60
2023-04-18T19:10:36.985Z,31.60
2023-04-18T19:13:04.730Z,31.60
2023-04-18T19:15:32.388Z,31.60
2023-04-18T19:18:00.066Z,31.60
2023-04-18T19:20:29.154Z,31.50
2023-04-18T19:22:56.991Z,31.60
2023-04-18T19:25:29.934Z,31.60
2023-04-18T19:27:57.633Z,31.60
2023-04-18T19:30:25.238Z,31.60
2023-04-18T19:32:52.978Z,31.60
2023-04-18T19:35:20.779Z,31.70
2023-04-18T19:37:48.597Z,31.70
2023-04-18T19:40:16.240Z,31.70
2023-04-18T19:42:43.963Z,31.70
2023-04-18T19:45:11.473Z,31.60
2023-04-18T19:47:39.195Z,31.70
2023-04-18T19:50:06.866Z,31.70
2023-04-18T19:52:34.681Z,31.70
2023-04-18T19:55:02.386Z,31.70
2023-04-18T19:57:30.598Z,31.60
2023-04-18T19:59:58.181Z,31.60
2023-04-18T20:02:25.827Z,31.70
2023-04-18T20:04:53.630Z,31.70
2023-04-18T20:07:21.734Z,31.70
2023-04-18T20:09:50.319Z,31.70
2023-04-18T20:12:17.888Z,31.60
2023-04-18T20:14:45.477Z,31.60
2023-04-18T20:17:13.136Z,31.60
2023-04-18T20:19:41.316Z,31.50
2023-04-18T20:22:09.246Z,31.60
2023-04-18T20:24:37.032Z,31.50
2023-04-18T20:27:05.179Z,31.50
2023-04-18T20:29:32.874Z,31.40
2023-04-18T20:32:00.607Z,31.50
2023-04-18T20:34:29.946Z,31.50
2023-04-18T20:36:57.889Z,31.60
2023-04-18T20:39:25.752Z,31.60
2023-04-18T20:41:53.463Z,31.50
2023-04-18T20:44:21.079Z,31.40
2023-04-18T20:46:48.902Z,31.50
2023-04-18T20:49:16.891Z,31.30
2023-04-18T20:51:44.656Z,31.30
2023-04-18T20:54:12.465Z,31.30
2023-04-18T20:56:40.380Z,31.30
2023-04-18T20:59:07.903Z,31.20
2023-04-18T21:01:37.027Z,31.20
2023-04-18T21:04:05.044Z,31.10
2023-04-18T21:06:32.768Z,31.00
2023-04-18T21:09:00.540Z,30.90
2023-04-18T21:11:28.135Z,30.90
2023-04-18T21:13:55.689Z,30.90
2023-04-18T21:16:23.497Z,30.70
2023-04-18T21:18:51.284Z,30.70
2023-04-18T21:21:18.837Z,30.70
2023-04-18T21:23:46.428Z,30.60
2023-04-18T21:26:14.045Z,30.60
2023-04-18T21:28:41.592Z,30.60
2023-04-18T21:31:09.399Z,30.60
2023-04-18T21:33:37.178Z,30.60
2023-04-18T21:36:04.751Z,30.50
2023-04-18T21:38:32.429Z,30.50
2023-04-18T21:41:00.056Z,30.50
2023-04-18T21:43:27.626Z,30.40
2023-04-18T21:45:55.347Z,30.40
2023-04-18T21:48:22.980Z,30.40
2023-04-18T21:50:50.511Z,30.40
2023-04-18T21:53:18.241Z,30.30
2023-04-18T21:55:45.802Z,30.30
2023-04-18T21:58:13.370Z,30.30
2023-04-18T22:00:41.402Z,30.20
2023-04-18T22:03:09.608Z,30.20
2023-04-18T22:05:38.122Z,30.20
2023-04-18T22:08:06.510Z,30.10
2023-04-18T22:10:35.916Z,30.00
2023-04-18T22:13:04.363Z,30.10
2023-04-18T22:15:34.157Z,30.10
2023-04-18T22:18:04.789Z,30.10
2023-04-18T22:20:33.385Z,30.10
2023-04-18T22:23:01.614Z,30.00
2023-04-18T22:25:29.550Z,30.00
2023-04-18T22:27:59.977Z,29.90
2023-04-18T22:30:28.658Z,30.00
2023-04-18T22:32:58.583Z,30.10
2023-04-18T22:35:26.426Z,30.20
2023-04-18T22:37:54.134Z,30.10
2023-04-18T22:40:22.435Z,30.20
2023-04-18T22:42:53.417Z,30.10
2023-04-18T22:45:23.205Z,30.00
2023-04-18T22:47:52.485Z,30.20
2023-04-18T22:50:20.095Z,30.10
2023-04-18T22:52:47.848Z,30.20
2023-04-18T22:55:15.556Z,30.10
2023-04-18T22:57:43.145Z,30.00
2023-04-18T23:00:10.865Z,29.90
2023-04-18T23:02:38.584Z,29.90
2023-04-18T23:05:06.321Z,30.00
2023-04-18T23:07:34.006Z,30.00
2023-04-18T23:10:01.554Z,30.00
2023-04-18T23:12:29.111Z,30.00
2023-04-18T23:14:57.147Z,30.00
2023-04-18T23:17:26.349Z,30.10
2023-04-18T23:19:54.316Z,30.10
2023-04-18T23:22:22.180Z,30.00
2023-04-18T23:24:49.677Z,30.10
2023-04-18T23:27:17.293Z,30.10
2023-04-18T23:29:45.131Z,30.10
2023-04-18T23:32:12.632Z,30.10
2023-04-18T23:34:40.558Z,30.10
2023-04-18T23:37:08.433Z,30.00
2023-04-18T23:39:35.931Z,30.00
2023-04-18T23:42:03.405Z,30.20
2023-04-18T23:44:31.385Z,30.40
2023-04-18T23:46:58.886Z,30.40
2023-04-18T23:49:26.476Z,30.30
2023-04-18T23:51:54.198Z,30.30
2023-04-18T23:54:21.789Z,30.40
2023-04-18T23:56:49.383Z,30.30
2023-04-18T23:59:17.089Z,30.30
